Time;durP1;ratioP1;P1;durP2;ratioP2;P2;SDS_P1;SDS_P2;PMS_P1;PMS_P2;Temp;Humidity;BMP_temperature;BMP_pressure;BME280_temperature;BME280_humidity;BME280_pressure;Samples;Min_cycle;Max_cycle;Signal;HPM_P1;HPM_P2
2023/04/08 00:02:10;;;;;;;11.95;7.20;;;6.00;99.90;;;;;;5071245;28;20048;-52
2023/04/08 00:04:36;;;;;;;12.77;7.80;;;5.90;99.90;;;;;;5071559;28;20040;-53
2023/04/08 00:07:02;;;;;;;11.63;7.30;;;5.90;99.90;;;;;;5071287;28;20523;-52
2023/04/08 00:09:27;;;;;;;13.35;7.45;;;5.90;99.90;;;;;;5071432;28;20479;-54
2023/04/08 00:11:53;;;;;;;14.85;7.70;;;5.80;99.90;;;;;;5071259;28;20244;-49
2023/04/08 00:14:19;;;;;;;13.55;7.75;;;5.80;99.90;;;;;;5069946;28;20182;-51
2023/04/08 00:16:44;;;;;;;11.77;7.18;;;6.00;99.90;;;;;;5070952;28;20040;-48
2023/04/08 00:19:11;;;;;;;12.98;6.85;;;5.70;99.90;;;;;;5070808;28;20418;-52
2023/04/08 00:21:36;;;;;;;12.20;7.28;;;5.70;99.90;;;;;;5071238;28;20051;-50
2023/04/08 00:24:02;;;;;;;11.25;7.18;;;6.00;99.90;;;;;;5070726;28;20037;-52
2023/04/08 00:26:28;;;;;;;11.73;7.15;;;5.70;99.90;;;;;;5071048;28;20028;-55
2023/04/08 00:28:54;;;;;;;14.05;6.88;;;5.60;99.90;;;;;;5071077;28;20036;-53
2023/04/08 00:31:20;;;;;;;12.88;7.80;;;5.60;99.90;;;;;;5069761;28;20032;-55
2023/04/08 00:33:46;;;;;;;12.35;7.95;;;5.50;99.90;;;;;;5069251;28;20211;-54
2023/04/08 00:36:12;;;;;;;14.27;7.05;;;5.60;99.90;;;;;;5070344;28;20174;-52
2023/04/08 00:38:37;;;;;;;13.00;7.38;;;5.50;99.90;;;;;;5069476;28;20079;-51
2023/04/08 00:41:03;;;;;;;13.45;6.88;;;5.50;99.90;;;;;;5070860;28;20036;-49
2023/04/08 00:43:29;;;;;;;13.45;6.95;;;5.40;99.90;;;;;;5070012;28;20098;-55
2023/04/08 00:45:54;;;;;;;13.05;7.55;;;5.40;99.90;;;;;;5067651;28;20067;-51
2023/04/08 00:48:20;;;;;;;13.23;7.15;;;5.40;99.90;;;;;;5070704;28;20501;-52
2023/04/08 00:50:46;;;;;;;14.23;7.20;;;5.90;99.90;;;;;;5070354;28;20136;-51
2023/04/08 00:53:17;;;;;;;16.88;7.35;;;5.30;99.90;;;;;;5069850;28;20071;-53
2023/04/08 00:55:44;;;;;;;11.57;7.18;;;5.30;99.90;;;;;;5070595;28;20044;-54
2023/04/08 00:58:10;;;;;;;13.10;7.05;;;5.30;99.90;;;;;;5070454;28;20052;-52
2023/04/08 01:00:42;;;;;;;13.70;7.32;;;5.40;99.90;;;;;;5070592;28;20643;-52
2023/04/08 01:03:22;;;;;;;10.63;6.82;;;5.20;99.90;;;;;;5069948;28;20043;-54
2023/04/08 01:06:20;;;;;;;13.02;7.15;;;5.20;99.90;;;;;;5070048;28;20064;-52
2023/04/08 01:08:48;;;;;;;11.88;6.93;;;5.20;99.90;;;;;;5070191;28;20089;-53
2023/04/08 01:11:14;;;;;;;15.93;7.70;;;5.10;99.90;;;;;;5070362;28;20045;-52
2023/04/08 01:13:42;;;;;;;12.50;7.00;;;5.00;99.90;;;;;;5070268;28;20082;-53
2023/04/08 01:16:11;;;;;;;11.02;6.93;;;5.00;99.90;;;;;;5057680;28;20033;-54
2023/04/08 01:18:38;;;;;;;12.23;7.47;;;5.00;99.90;;;;;;5069802;28;20087;-50
2023/04/08 01:21:05;;;;;;;13.48;7.57;;;5.00;99.90;;;;;;5070144;28;20491;-56
2023/04/08 01:23:49;;;;;;;14.88;6.93;;;5.00;99.90;;;;;;5069683;28;20076;-56
2023/04/08 01:26:23;;;;;;;14.85;7.38;;;4.90;99.90;;;;;;5070507;28;20039;-52
2023/04/08 01:28:52;;;;;;;12.48;7.63;;;4.90;99.90;;;;;;5069461;28;20059;-51
2023/04/08 01:31:19;;;;;;;12.38;7.68;;;4.80;99.90;;;;;;5068320;28;20044;-54
2023/04/08 01:33:46;;;;;;;15.50;7.60;;;4.80;99.90;;;;;;5069862;28;20115;-48
2023/04/08 01:36:13;;;;;;;13.15;7.65;;;4.80;99.90;;;;;;5070075;28;20071;-55
2023/04/08 01:38:40;;;;;;;17.73;7.65;;;4.80;99.90;;;;;;5069954;28;20071;-54
2023/04/08 01:41:09;;;;;;;14.23;7.43;;;4.70;99.90;;;;;;5068900;28;20037;-53
2023/04/08 01:43:37;;;;;;;12.38;7.40;;;4.70;99.90;;;;;;5069849;28;20035;-52
2023/04/08 01:46:05;;;;;;;15.10;7.43;;;4.70;99.90;;;;;;5069616;28;20102;-53
2023/04/08 01:48:31;;;;;;;13.27;6.90;;;4.70;99.90;;;;;;5070043;28;20044;-54
2023/04/08 01:50:58;;;;;;;13.45;7.32;;;4.60;99.90;;;;;;5070043;28;20123;-54
2023/04/08 01:53:24;;;;;;;13.10;7.47;;;4.60;99.90;;;;;;5069623;28;20112;-48
2023/04/08 01:55:57;;;;;;;11.63;6.95;;;4.50;99.90;;;;;;5070158;28;20122;-51
2023/04/08 01:58:25;;;;;;;13.25;7.22;;;4.60;99.90;;;;;;5069717;28;20033;-53
2023/04/08 02:00:53;;;;;;;15.73;7.45;;;4.50;99.90;;;;;;5068636;28;20063;-53
2023/04/08 02:03:22;;;;;;;14.30;7.25;;;4.50;99.90;;;;;;5068466;28;20072;-52
2023/04/08 02:05:48;;;;;;;11.95;7.03;;;4.50;99.90;;;;;;5069897;28;20036;-55
2023/04/08 02:08:14;;;;;;;13.65;7.68;;;4.40;99.90;;;;;;5069501;28;20522;-50
2023/04/08 02:10:40;;;;;;;12.85;7.85;;;4.40;99.90;;;;;;5069979;28;20383;-51
2023/04/08 02:13:06;;;;;;;15.25;7.10;;;4.40;99.90;;;;;;5069467;28;20064;-53
2023/04/08 02:15:36;;;;;;;13.95;7.32;;;4.40;99.90;;;;;;5066366;28;20032;-53
2023/04/08 02:18:14;;;;;;;13.05;7.25;;;4.40;99.90;;;;;;5072467;28;20479;-54
2023/04/08 02:20:47;;;;;;;12.63;7.75;;;4.30;99.90;;;;;;5073358;28;20079;-52
2023/04/08 02:23:21;;;;;;;14.75;7.55;;;4.30;99.90;;;;;;5073055;28;20043;-54
2023/04/08 02:25:48;;;;;;;13.60;7.72;;;4.20;99.90;;;;;;5073346;28;20036;-50
2023/04/08 02:28:16;;;;;;;16.38;8.07;;;4.20;99.90;;;;;;5073116;28;20178;-53
2023/04/08 02:30:46;;;;;;;13.65;7.75;;;4.10;99.90;;;;;;5073007;28;20047;-49
2023/04/08 02:33:13;;;;;;;13.80;7.88;;;4.20;99.90;;;;;;5073428;28;20062;-51
2023/04/08 02:35:40;;;;;;;15.20;8.45;;;4.10;99.90;;;;;;5071626;28;20037;-55
2023/04/08 02:38:07;;;;;;;13.30;8.02;;;4.20;99.90;;;;;;5071796;28;20090;-51
2023/04/08 02:40:34;;;;;;;16.90;8.27;;;4.10;99.90;;;;;;5073450;28;20040;-53
2023/04/08 02:43:00;;;;;;;13.65;7.97;;;4.10;99.90;;;;;;5073239;28;20090;-51
2023/04/08 02:45:30;;;;;;;14.07;8.57;;;4.10;99.90;;;;;;5070053;28;20048;-51
2023/04/08 02:47:55;;;;;;;14.02;8.00;;;4.00;99.90;;;;;;5072766;28;20115;-55
2023/04/08 02:50:21;;;;;;;13.88;8.35;;;4.10;99.90;;;;;;5072728;28;20115;-53
2023/04/08 02:52:47;;;;;;;18.48;8.57;;;4.00;99.90;;;;;;5072648;28;20036;-55
2023/04/08 02:55:12;;;;;;;15.45;8.55;;;3.90;99.90;;;;;;5072532;28;20076;-54
2023/04/08 02:57:40;;;;;;;16.17;8.20;;;4.00;99.90;;;;;;5072733;28;20025;-50
2023/04/08 03:00:06;;;;;;;16.17;9.68;;;3.90;99.90;;;;;;5068761;28;20040;-50
2023/04/08 03:02:32;;;;;;;19.00;9.18;;;4.00;99.90;;;;;;5073200;28;20111;-51
2023/04/08 03:04:58;;;;;;;16.88;8.40;;;3.90;99.90;;;;;;5073310;28;20124;-52
2023/04/08 03:07:24;;;;;;;18.85;9.02;;;3.90;99.90;;;;;;5072640;28;20595;-52
2023/04/08 03:09:50;;;;;;;16.25;8.82;;;3.90;99.90;;;;;;5072090;28;20115;-55
2023/04/08 03:12:15;;;;;;;17.05;8.02;;;3.90;99.90;;;;;;5072344;28;20047;-53
2023/04/08 03:14:41;;;;;;;16.00;8.80;;;3.90;99.90;;;;;;5072677;28;20041;-53
2023/04/08 03:17:07;;;;;;;16.80;8.85;;;3.90;99.90;;;;;;5072969;28;20127;-52
2023/04/08 03:19:33;;;;;;;16.15;7.78;;;3.80;99.90;;;;;;5072597;28;20080;-50
2023/04/08 03:21:59;;;;;;;15.88;8.90;;;3.70;99.90;;;;;;5072527;28;20044;-52
2023/04/08 03:24:24;;;;;;;18.23;8.85;;;3.80;99.90;;;;;;5070414;28;20038;-54
2023/04/08 03:26:50;;;;;;;15.15;8.95;;;3.70;99.90;;;;;;5072005;28;20491;-50
2023/04/08 03:29:16;;;;;;;15.77;8.80;;;3.90;99.90;;;;;;5072368;28;20142;-52
2023/04/08 03:31:41;;;;;;;17.50;9.85;;;3.60;99.90;;;;;;5072663;28;20043;-51
2023/04/08 03:34:07;;;;;;;16.17;9.15;;;3.60;99.90;;;;;;5072922;28;20075;-53
2023/04/08 03:36:33;;;;;;;16.75;9.40;;;3.70;99.90;;;;;;5071126;28;20039;-54
2023/04/08 03:38:58;;;;;;;16.65;9.60;;;3.70;99.90;;;;;;5071838;28;20056;-53
2023/04/08 03:41:24;;;;;;;19.77;9.27;;;3.70;99.90;;;;;;5071658;28;20041;-54
2023/04/08 03:43:50;;;;;;;16.52;9.13;;;3.50;99.90;;;;;;5071730;28;20150;-49
2023/04/08 03:46:16;;;;;;;18.50;9.80;;;3.50;99.90;;;;;;5070567;28;20530;-53
2023/04/08 03:48:41;;;;;;;16.13;9.90;;;3.60;99.90;;;;;;5072587;28;20048;-52
2023/04/08 03:51:07;;;;;;;18.55;9.13;;;3.80;99.90;;;;;;5071922;28;20040;-53
2023/04/08 03:53:33;;;;;;;18.95;9.63;;;3.50;99.90;;;;;;5071357;28;20122;-53
2023/04/08 03:55:58;;;;;;;18.92;9.77;;;3.30;99.90;;;;;;5071657;28;20032;-53
2023/04/08 03:58:24;;;;;;;19.33;10.43;;;3.40;99.90;;;;;;5071616;28;20033;-55
2023/04/08 04:00:50;;;;;;;15.85;9.38;;;3.50;99.90;;;;;;5069853;28;20119;-52
2023/04/08 04:03:16;;;;;;;19.98;9.50;;;3.50;99.90;;;;;;5071596;28;20037;-51
2023/04/08 04:05:41;;;;;;;17.50;9.75;;;3.40;99.90;;;;;;5071683;28;20116;-56
2023/04/08 04:08:08;;;;;;;17.48;10.07;;;3.40;99.90;;;;;;5071589;28;20184;-54
2023/04/08 04:10:34;;;;;;;20.50;10.68;;;3.20;99.90;;;;;;5071107;28;20070;-52
2023/04/08 04:13:00;;;;;;;21.00;10.45;;;3.40;99.90;;;;;;5071367;28;20386;-50
2023/04/08 04:15:25;;;;;;;20.48;10.63;;;3.10;99.90;;;;;;5071401;28;20044;-51
2023/04/08 04:17:51;;;;;;;20.35;9.95;;;3.30;99.90;;;;;;5071111;28;20430;-54
2023/04/08 04:20:17;;;;;;;20.58;11.73;;;3.30;99.90;;;;;;5071082;28;20038;-54
2023/04/08 04:22:43;;;;;;;22.60;11.90;;;3.20;99.90;;;;;;5066855;28;20056;-52
2023/04/08 04:25:09;;;;;;;18.63;10.80;;;3.10;99.90;;;;;;5071709;28;20503;-48
2023/04/08 04:27:38;;;;;;;21.73;10.82;;;3.10;99.90;;;;;;5070984;28;20060;-56
2023/04/08 04:30:04;;;;;;;19.88;10.32;;;3.00;99.90;;;;;;5071087;28;20028;-53
2023/04/08 04:32:30;;;;;;;22.35;10.85;;;3.20;99.90;;;;;;5070677;28;20082;-51
2023/04/08 04:34:56;;;;;;;19.20;11.07;;;3.20;99.90;;;;;;5070735;28;20040;-52
2023/04/08 04:37:22;;;;;;;21.45;10.70;;;3.00;99.90;;;;;;5071107;28;20032;-51
2023/04/08 04:39:47;;;;;;;22.17;11.13;;;2.90;99.90;;;;;;5070109;28;20037;-54
2023/04/08 04:42:13;;;;;;;20.23;10.80;;;3.10;99.90;;;;;;5070911;28;20036;-50
2023/04/08 04:44:38;;;;;;;21.88;11.70;;;2.80;99.90;;;;;;5070736;28;20395;-52
2023/04/08 04:47:04;;;;;;;21.67;11.63;;;3.10;99.90;;;;;;5070061;28;20040;-51
2023/04/08 04:49:30;;;;;;;22.42;11.35;;;2.80;99.90;;;;;;5070651;28;20484;-50
2023/04/08 04:51:56;;;;;;;20.60;10.48;;;2.90;99.90;;;;;;5068240;28;20498;-52
2023/04/08 04:54:21;;;;;;;20.75;11.10;;;2.80;99.90;;;;;;5070324;28;20044;-53
2023/04/08 04:56:47;;;;;;;21.17;11.15;;;3.10;99.90;;;;;;5070480;28;20040;-52
2023/04/08 04:59:12;;;;;;;24.42;12.20;;;3.10;99.90;;;;;;5070521;28;20163;-52
2023/04/08 05:01:39;;;;;;;23.25;12.35;;;2.90;99.90;;;;;;5070215;28;20090;-56
2023/04/08 05:04:06;;;;;;;23.88;11.93;;;3.00;99.90;;;;;;5070853;28;20506;-48
2023/04/08 05:06:32;;;;;;;22.20;12.27;;;3.00;99.90;;;;;;5068209;28;20072;-48
2023/04/08 05:08:58;;;;;;;21.98;11.55;;;3.10;99.90;;;;;;5069858;28;20144;-56
2023/04/08 05:11:23;;;;;;;22.45;13.00;;;3.00;99.90;;;;;;5070145;28;20566;-54
2023/04/08 05:13:49;;;;;;;24.50;13.27;;;2.70;99.90;;;;;;5070045;28;20072;-48
2023/04/08 05:16:15;;;;;;;25.67;12.52;;;2.70;99.90;;;;;;5061254;28;20115;-51
2023/04/08 05:18:41;;;;;;;22.77;12.38;;;3.10;99.90;;;;;;5069972;28;20135;-49
2023/04/08 05:21:07;;;;;;;22.35;12.65;;;2.90;99.90;;;;;;5070336;28;20041;-50
2023/04/08 05:23:34;;;;;;;23.35;12.50;;;2.90;99.90;;;;;;5068058;28;20047;-50
2023/04/08 05:26:00;;;;;;;24.95;13.30;;;2.70;99.90;;;;;;5068943;28;20044;-51
2023/04/08 05:28:26;;;;;;;28.55;14.40;;;3.00;99.90;;;;;;5070524;28;20036;-50
2023/04/08 05:30:52;;;;;;;24.40;13.45;;;2.90;99.90;;;;;;5070505;28;20052;-57
2023/04/08 05:33:18;;;;;;;25.52;13.25;;;2.60;99.90;;;;;;5070175;28;20048;-53
2023/04/08 05:35:44;;;;;;;25.15;13.38;;;3.00;99.90;;;;;;5069781;28;20036;-52
2023/04/08 05:38:10;;;;;;;25.85;13.00;;;2.90;99.90;;;;;;5068783;28;20094;-52
2023/04/08 05:40:36;;;;;;;23.77;12.98;;;3.00;99.90;;;;;;5070272;28;20036;-52
2023/04/08 05:43:01;;;;;;;28.00;14.27;;;2.80;99.90;;;;;;5068589;28;20045;-51
2023/04/08 05:45:27;;;;;;;26.58;14.18;;;3.10;99.90;;;;;;5070122;28;20029;-55
2023/04/08 05:47:53;;;;;;;32.13;15.40;;;2.90;99.90;;;;;;5069864;28;20048;-54
2023/04/08 05:50:19;;;;;;;28.52;15.30;;;2.80;99.90;;;;;;5070890;28;20499;-53
2023/04/08 05:52:45;;;;;;;28.00;14.52;;;3.20;99.90;;;;;;5071159;28;20105;-54
2023/04/08 05:55:12;;;;;;;28.05;14.75;;;3.00;99.90;;;;;;5073688;28;20039;-54
2023/04/08 05:57:38;;;;;;;33.13;14.98;;;3.40;99.90;;;;;;5073728;28;20075;-55
2023/04/08 06:00:07;;;;;;;28.23;14.60;;;3.40;99.90;;;;;;5073900;28;20037;-55
2023/04/08 06:02:33;;;;;;;29.63;14.93;;;3.60;99.90;;;;;;5073662;28;20029;-49
2023/04/08 06:04:59;;;;;;;28.52;15.75;;;3.60;99.90;;;;;;5073713;28;20071;-55
2023/04/08 06:07:24;;;;;;;29.15;15.45;;;3.30;99.90;;;;;;5073155;28;20119;-53
2023/04/08 06:09:50;;;;;;;28.30;15.38;;;3.30;99.90;;;;;;5071555;28;20123;-51
2023/04/08 06:12:16;;;;;;;28.80;15.30;;;3.70;99.90;;;;;;5072902;28;20127;-51
2023/04/08 06:14:41;;;;;;;29.42;16.23;;;3.40;99.90;;;;;;5073481;28;20082;-54
2023/04/08 06:17:07;;;;;;;34.78;16.83;;;3.50;99.90;;;;;;5073844;28;20039;-53
2023/04/08 06:19:34;;;;;;;31.75;15.50;;;4.10;99.90;;;;;;5073118;28;20053;-50
2023/04/08 06:22:00;;;;;;;31.58;16.83;;;4.00;99.90;;;;;;5073462;28;20041;-54
2023/04/08 06:24:26;;;;;;;32.75;16.80;;;4.10;99.90;;;;;;5072726;28;20035;-55
2023/04/08 06:26:53;;;;;;;29.00;16.65;;;4.20;99.90;;;;;;5072864;28;20090;-52
2023/04/08 06:29:22;;;;;;;35.55;17.35;;;4.10;99.90;;;;;;5072931;28;20067;-54
2023/04/08 06:31:49;;;;;;;30.45;16.50;;;4.20;99.90;;;;;;5072872;28;20123;-50
2023/04/08 06:34:15;;;;;;;31.02;17.17;;;3.90;99.90;;;;;;5073159;28;20044;-52
2023/04/08 06:36:40;;;;;;;32.03;17.17;;;4.10;99.90;;;;;;5070535;28;20036;-48
2023/04/08 06:39:06;;;;;;;30.02;16.15;;;3.80;99.90;;;;;;5071604;28;20048;-56
2023/04/08 06:41:32;;;;;;;30.60;17.20;;;4.10;99.90;;;;;;5073007;28;20040;-51
2023/04/08 06:43:58;;;;;;;32.00;16.38;;;3.90;99.90;;;;;;5072982;28;20072;-54
2023/04/08 06:46:24;;;;;;;29.40;16.48;;;4.20;99.90;;;;;;5071758;28;20037;-54
2023/04/08 06:48:50;;;;;;;30.52;16.48;;;3.80;99.90;;;;;;5060843;28;20101;-55
2023/04/08 06:51:15;;;;;;;31.67;17.25;;;3.90;99.90;;;;;;5059313;28;20040;-51
2023/04/08 06:53:41;;;;;;;32.47;16.83;;;4.20;99.90;;;;;;5057823;28;20111;-54
2023/04/08 06:56:07;;;;;;;38.30;19.17;;;4.10;99.90;;;;;;5060170;28;20252;-52
2023/04/08 06:58:32;;;;;;;35.88;18.27;;;4.30;99.90;;;;;;5058101;28;20483;-52
2023/04/08 07:00:59;;;;;;;35.38;18.00;;;4.40;99.90;;;;;;5059238;28;20460;-49
2023/04/08 07:03:25;;;;;;;32.78;18.55;;;4.40;99.90;;;;;;5059885;28;20762;-54
2023/04/08 07:05:51;;;;;;;34.75;18.38;;;4.50;99.90;;;;;;5059370;28;20037;-56
2023/04/08 07:08:17;;;;;;;35.28;19.10;;;4.50;99.90;;;;;;5059722;28;20036;-51
2023/04/08 07:10:43;;;;;;;34.85;17.70;;;4.80;99.90;;;;;;5063200;28;20047;-51
2023/04/08 07:13:09;;;;;;;36.85;18.70;;;5.00;99.90;;;;;;5062435;28;20036;-52
2023/04/08 07:15:35;;;;;;;34.90;19.45;;;5.10;99.90;;;;;;5058490;28;20094;-53
2023/04/08 07:18:01;;;;;;;38.40;18.58;;;5.20;99.90;;;;;;5058607;28;20135;-55
2023/04/08 07:20:27;;;;;;;36.38;19.55;;;5.30;99.90;;;;;;5060764;28;20074;-52
2023/04/08 07:22:53;;;;;;;38.08;19.38;;;5.20;99.90;;;;;;5060017;28;20033;-53
2023/04/08 07:25:19;;;;;;;34.65;19.70;;;5.20;99.90;;;;;;5058704;28;20044;-51
2023/04/08 07:27:44;;;;;;;34.13;19.05;;;5.30;99.90;;;;;;5058621;28;20047;-51
2023/04/08 07:30:10;;;;;;;38.35;21.25;;;5.50;99.90;;;;;;5060920;28;20028;-49
2023/04/08 07:32:36;;;;;;;39.05;20.88;;;5.40;99.90;;;;;;5060001;28;20039;-50
2023/04/08 07:35:02;;;;;;;34.00;20.70;;;5.80;99.90;;;;;;5064191;28;20132;-55
2023/04/08 07:37:27;;;;;;;35.05;19.90;;;5.70;99.90;;;;;;5063368;28;20045;-51
2023/04/08 07:39:53;;;;;;;37.10;21.17;;;5.70;99.90;;;;;;5060550;28;20036;-51
2023/04/08 07:42:19;;;;;;;36.38;20.08;;;5.80;99.90;;;;;;5061263;28;20116;-55
2023/04/08 07:44:45;;;;;;;35.25;20.35;;;5.90;99.90;;;;;;5054377;28;20041;-58
2023/04/08 07:47:12;;;;;;;35.30;20.20;;;6.00;99.90;;;;;;5069191;28;20032;-57
2023/04/08 07:49:38;;;;;;;40.35;21.20;;;6.20;99.90;;;;;;5068944;28;21083;-57
2023/04/08 07:52:05;;;;;;;38.20;21.90;;;6.20;99.90;;;;;;5064399;28;20052;-54
2023/04/08 07:54:33;;;;;;;36.70;20.98;;;6.10;99.90;;;;;;5068797;28;20116;-55
2023/04/08 07:56:59;;;;;;;35.22;20.98;;;6.50;99.90;;;;;;5069402;28;20079;-59
2023/04/08 07:59:24;;;;;;;36.38;21.13;;;6.40;99.90;;;;;;5070900;28;20028;-53
2023/04/08 08:01:50;;;;;;;37.65;20.73;;;6.40;99.90;;;;;;5070839;28;20039;-61
2023/04/08 08:04:16;;;;;;;33.35;20.00;;;6.40;99.90;;;;;;5068024;28;20068;-57
2023/04/08 08:06:42;;;;;;;49.78;21.25;;;6.60;99.90;;;;;;5049274;28;20679;-56
2023/04/08 08:09:08;;;;;;;36.25;21.77;;;6.50;99.90;;;;;;5068829;28;20032;-51
2023/04/08 08:11:34;;;;;;;39.65;23.20;;;7.00;99.90;;;;;;5068739;28;20119;-53
2023/04/08 08:14:00;;;;;;;38.60;22.60;;;6.60;99.90;;;;;;5068472;28;20075;-57
2023/04/08 08:16:30;;;;;;;37.20;22.75;;;6.60;99.90;;;;;;5070285;28;20044;-55
2023/04/08 08:18:59;;;;;;;37.83;21.55;;;6.50;99.90;;;;;;5070294;28;20052;-55
2023/04/08 08:21:25;;;;;;;49.95;21.20;;;6.60;99.90;;;;;;5069812;28;20555;-59
2023/04/08 08:23:53;;;;;;;40.28;21.55;;;6.80;99.90;;;;;;5063694;28;20469;-51
2023/04/08 08:26:20;;;;;;;39.85;20.60;;;6.90;99.90;;;;;;5063849;28;20040;-58
2023/04/08 08:28:45;;;;;;;34.30;20.50;;;7.00;99.90;;;;;;5064246;28;20064;-57
2023/04/08 08:31:11;;;;;;;43.83;21.23;;;6.90;99.90;;;;;;5071185;28;20071;-58
2023/04/08 08:33:37;;;;;;;36.90;20.98;;;7.30;99.90;;;;;;5068009;28;20032;-57
2023/04/08 08:36:04;;;;;;;30.75;19.35;;;7.20;99.90;;;;;;5068741;28;20037;-51
2023/04/08 08:38:30;;;;;;;32.80;20.45;;;7.30;99.90;;;;;;5069626;28;20044;-56
2023/04/08 08:40:57;;;;;;;30.48;19.55;;;7.50;99.90;;;;;;5069720;28;20044;-60
2023/04/08 08:43:28;;;;;;;31.50;19.40;;;7.60;99.90;;;;;;5071281;28;20037;-55
2023/04/08 08:45:54;;;;;;;31.77;19.55;;;7.80;99.90;;;;;;5070827;28;20037;-57
2023/04/08 08:48:20;;;;;;;33.03;20.20;;;7.70;99.90;;;;;;5071056;28;20119;-59
2023/04/08 08:50:46;;;;;;;31.90;18.77;;;7.80;99.90;;;;;;5070605;28;20111;-55
2023/04/08 08:53:11;;;;;;;31.52;19.75;;;7.90;99.90;;;;;;5070490;28;20036;-53
2023/04/08 08:55:38;;;;;;;29.40;18.17;;;7.80;99.90;;;;;;5070712;28;20048;-57
2023/04/08 08:58:04;;;;;;;29.08;17.80;;;7.90;99.90;;;;;;5070330;28;20070;-56
2023/04/08 09:00:38;;;;;;;29.13;18.58;;;7.90;99.90;;;;;;5070557;28;20032;-58
2023/04/08 09:03:18;;;;;;;29.83;18.70;;;7.90;99.90;;;;;;5069239;28;20408;-57
2023/04/08 09:05:51;;;;;;;32.20;18.55;;;8.20;99.90;;;;;;5070618;28;20079;-53
2023/04/08 09:08:44;;;;;;;28.63;17.13;;;8.30;99.90;;;;;;5070597;28;20444;-53
2023/04/08 09:11:18;;;;;;;25.35;16.38;;;8.60;99.90;;;;;;5063795;28;20047;-58
2023/04/08 09:13:44;;;;;;;;;;;8.80;99.90;;;;;;5069619;28;20383;-59
2023/04/08 09:16:12;;;;;;;29.33;16.17;;;8.70;99.90;;;;;;5067716;28;19964;-53
2023/04/08 09:18:39;;;;;;;28.10;17.52;;;8.60;99.90;;;;;;5066089;28;20106;-56
2023/04/08 09:21:06;;;;;;;27.15;17.10;;;8.70;99.90;;;;;;5067096;28;20090;-54
2023/04/08 09:23:41;;;;;;;30.52;17.65;;;8.80;99.90;;;;;;5066742;28;20115;-56
2023/04/08 09:26:09;;;;;;;23.95;16.17;;;8.90;99.90;;;;;;5066217;28;20048;-57
2023/04/08 09:28:35;;;;;;;27.52;16.65;;;8.80;99.90;;;;;;5070001;28;20079;-60
2023/04/08 09:31:08;;;;;;;25.63;15.75;;;8.90;99.90;;;;;;5070490;28;20079;-54
2023/04/08 09:33:33;;;;;;;26.55;15.80;;;9.40;99.90;;;;;;5068980;28;20465;-56
2023/04/08 09:35:59;;;;;;;23.65;15.98;;;9.30;99.90;;;;;;5067992;28;20040;-52
2023/04/08 09:38:25;;;;;;;22.88;14.35;;;9.50;99.90;;;;;;5068340;28;20037;-58
2023/04/08 09:40:51;;;;;;;20.88;15.02;;;9.60;99.90;;;;;;5069254;28;20032;-56
2023/04/08 09:43:22;;;;;;;21.77;15.40;;;9.80;99.90;;;;;;5067232;28;20043;-58
2023/04/08 09:45:49;;;;;;;21.75;14.98;;;10.00;99.90;;;;;;5069137;28;20471;-59
2023/04/08 09:48:25;;;;;;;23.85;16.33;;;10.10;99.90;;;;;;5068239;28;20565;-57
2023/04/08 09:50:54;;;;;;;23.35;14.60;;;10.10;99.90;;;;;;5069073;28;20040;-57
2023/04/08 09:53:31;;;;;;;20.83;14.48;;;10.20;99.90;;;;;;5066352;28;20041;-54
2023/04/08 09:55:59;;;;;;;22.38;13.95;;;10.20;99.90;;;;;;5067792;28;20372;-56
2023/04/08 09:58:28;;;;;;;20.70;14.95;;;10.30;99.90;;;;;;5068435;28;20048;-54
2023/04/08 10:00:54;;;;;;;20.15;14.02;;;10.30;99.90;;;;;;5069859;28;20040;-53
2023/04/08 10:03:49;;;;;;;20.25;14.18;;;10.20;99.90;;;;;;5068812;28;20105;-57
2023/04/08 10:06:18;;;;;;;23.25;15.45;;;10.20;99.90;;;;;;5065169;28;20067;-56
2023/04/08 10:08:44;;;;;;;22.27;15.35;;;10.10;99.90;;;;;;5070090;28;20051;-57
2023/04/08 10:11:10;;;;;;;21.00;14.40;;;10.10;99.90;;;;;;5067205;28;20044;-56
2023/04/08 10:13:36;;;;;;;22.63;16.00;;;10.20;99.90;;;;;;5068547;28;20048;-57
2023/04/08 10:16:24;;;;;;;21.15;15.23;;;10.40;99.90;;;;;;5069762;28;20075;-53
2023/04/08 10:18:54;;;;;;;22.58;15.32;;;10.70;99.90;;;;;;5066365;28;20504;-55
2023/04/08 10:21:36;;;;;;;21.45;15.18;;;10.70;99.90;;;;;;5067787;28;20115;-55
2023/04/08 10:24:06;;;;;;;20.90;15.38;;;10.70;99.90;;;;;;5065553;28;20178;-57
2023/04/08 10:26:42;;;;;;;24.15;16.08;;;10.80;99.90;;;;;;5066965;28;20037;-59
2023/04/08 10:29:17;;;;;;;22.33;16.55;;;10.80;99.90;;;;;;5068719;28;20044;-55
2023/04/08 10:31:47;;;;;;;25.42;17.75;;;10.90;99.90;;;;;;5068209;28;20048;-55
2023/04/08 10:34:17;;;;;;;24.58;17.58;;;11.00;99.90;;;;;;5067231;28;20036;-53
2023/04/08 10:36:44;;;;;;;22.17;15.93;;;11.00;99.90;;;;;;5066313;28;20040;-57
2023/04/08 10:39:09;;;;;;;24.20;16.33;;;11.20;99.90;;;;;;5073126;28;20105;-56
2023/04/08 10:41:50;;;;;;;21.65;16.33;;;11.40;99.90;;;;;;5073381;28;20522;-56
2023/04/08 10:44:21;;;;;;;20.83;17.80;;;11.70;99.90;;;;;;5073415;28;20072;-57
2023/04/08 10:46:54;;;;;;;20.98;17.52;;;11.90;99.90;;;;;;5073710;28;20033;-56
2023/04/08 10:49:20;;;;;;;21.27;17.85;;;12.00;99.90;;;;;;5073314;28;20174;-57
2023/04/08 10:51:47;;;;;;;17.98;15.98;;;12.00;99.90;;;;;;5072703;28;20101;-54
2023/04/08 10:54:17;;;;;;;19.40;16.55;;;12.10;99.90;;;;;;5072327;28;20036;-53
2023/04/08 10:56:48;;;;;;;20.15;17.33;;;12.20;99.90;;;;;;5072485;28;20044;-52
2023/04/08 10:59:16;;;;;;;18.75;16.08;;;12.10;99.90;;;;;;5072893;28;20044;-57
2023/04/08 11:01:44;;;;;;;17.80;15.90;;;12.20;99.90;;;;;;5072850;28;20051;-56
2023/04/08 11:04:22;;;;;;;17.98;15.27;;;12.20;99.90;;;;;;5072843;28;20035;-58
2023/04/08 11:06:49;;;;;;;16.90;14.80;;;12.10;99.90;;;;;;5072004;28;20468;-57
2023/04/08 11:09:18;;;;;;;17.60;15.77;;;12.10;99.90;;;;;;5072240;28;20072;-54
2023/04/08 11:11:44;;;;;;;16.23;13.52;;;12.10;99.90;;;;;;5073080;28;20395;-57
2023/04/08 11:14:11;;;;;;;16.08;14.00;;;12.30;99.90;;;;;;5072836;28;20110;-56
2023/04/08 11:16:40;;;;;;;15.38;13.68;;;12.60;99.90;;;;;;5071998;28;20072;-56
2023/04/08 11:19:06;;;;;;;14.95;13.35;;;12.70;99.90;;;;;;5068560;28;20053;-54
2023/04/08 11:21:35;;;;;;;15.55;13.40;;;12.70;99.90;;;;;;5063516;28;20072;-58
2023/04/08 11:24:06;;;;;;;14.82;13.23;;;12.70;99.90;;;;;;5071769;28;20032;-55
2023/04/08 11:26:32;;;;;;;14.48;12.75;;;12.90;99.90;;;;;;5072200;28;20047;-54
2023/04/08 11:28:59;;;;;;;13.60;12.10;;;13.20;99.90;;;;;;5071822;28;20491;-61
2023/04/08 11:31:26;;;;;;;13.55;12.07;;;13.30;99.90;;;;;;5072524;28;20078;-58
2023/04/08 11:33:57;;;;;;;15.60;12.70;;;13.40;99.90;;;;;;5072015;28;20387;-53
2023/04/08 11:36:23;;;;;;;15.07;12.60;;;13.30;99.90;;;;;;5072363;28;20380;-60
2023/04/08 11:38:49;;;;;;;14.93;12.68;;;13.20;99.90;;;;;;5068534;28;20070;-55
2023/04/08 11:41:15;;;;;;;19.45;12.95;;;13.20;99.90;;;;;;5070363;28;20068;-56
2023/04/08 11:43:55;;;;;;;16.10;12.70;;;13.10;99.90;;;;;;5072036;28;20040;-56
2023/04/08 11:46:21;;;;;;;16.05;12.85;;;13.10;99.90;;;;;;5068345;28;20029;-59
2023/04/08 11:49:05;;;;;;;13.55;12.10;;;13.10;99.90;;;;;;5069796;28;20041;-58
2023/04/08 11:51:33;;;;;;;14.30;12.53;;;13.40;99.90;;;;;;5071778;28;20052;-62
2023/04/08 11:53:59;;;;;;;19.05;12.40;;;13.80;99.90;;;;;;5071393;28;20776;-57
2023/04/08 11:56:25;;;;;;;13.85;11.85;;;13.90;99.90;;;;;;5071764;28;20032;-51
2023/04/08 11:58:51;;;;;;;14.77;12.25;;;14.10;99.90;;;;;;5068389;28;20203;-53
2023/04/08 12:01:17;;;;;;;13.63;10.80;;;14.30;99.90;;;;;;5069491;28;20034;-52
2023/04/08 12:04:12;;;;;;;14.25;11.38;;;14.50;99.90;;;;;;5067967;28;20051;-55
2023/04/08 12:06:38;;;;;;;14.45;11.93;;;14.80;99.90;;;;;;5060238;28;20447;-52
2023/04/08 12:09:04;;;;;;;13.45;11.93;;;14.80;99.90;;;;;;5071113;28;20125;-53
2023/04/08 12:11:30;;;;;;;12.88;11.32;;;14.80;99.90;;;;;;5069161;28;20040;-55
2023/04/08 12:13:56;;;;;;;12.93;11.43;;;14.90;99.90;;;;;;5069827;28;20064;-54
2023/04/08 12:16:22;;;;;;;14.63;11.00;;;15.00;99.90;;;;;;5064709;28;20043;-57
2023/04/08 12:18:48;;;;;;;12.55;11.18;;;15.30;99.90;;;;;;5068553;28;20045;-57
2023/04/08 12:21:14;;;;;;;12.65;10.70;;;15.50;99.90;;;;;;5066290;28;20036;-56
2023/04/08 12:23:39;;;;;;;13.98;11.60;;;15.70;99.90;;;;;;5070055;28;20032;-57
2023/04/08 12:26:06;;;;;;;14.32;12.10;;;15.70;99.90;;;;;;5070119;28;20059;-55
2023/04/08 12:28:33;;;;;;;12.82;11.13;;;15.80;99.90;;;;;;5067440;28;20458;-58
2023/04/08 12:30:59;;;;;;;12.93;11.52;;;15.90;99.90;;;;;;5059974;28;20054;-57
2023/04/08 12:33:24;;;;;;;12.40;10.80;;;15.80;99.90;;;;;;5067248;28;20048;-57
2023/04/08 12:35:51;;;;;;;12.48;11.10;;;15.70;99.90;;;;;;5069044;28;20048;-58
2023/04/08 12:38:16;;;;;;;11.93;10.38;;;15.80;99.90;;;;;;5066954;28;20045;-54
2023/04/08 12:40:42;;;;;;;12.63;10.88;;;15.90;99.90;;;;;;5069886;28;20361;-55